Time;durP1;ratioP1;P1;durP2;ratioP2;P2;SDS_P1;SDS_P2;PMS_P1;PMS_P2;Temp;Humidity;BMP_temperature;BMP_pressure;BME280_temperature;BME280_humidity;BME280_pressure;Samples;Min_cycle;Max_cycle;Signal;HPM_P1;HPM_P2
2023/04/13 00:00:47;;;;;;;1.20;1.10;;;7.20;99.90;;;;;;4887935;29;20286;-75
2023/04/13 00:03:15;;;;;;;1.90;0.97;;;7.20;99.90;;;;;;4877778;29;20321;-76
2023/04/13 00:05:45;;;;;;;1.20;1.10;;;7.10;99.90;;;;;;4878374;29;20217;-79
2023/04/13 00:08:15;;;;;;;1.67;1.20;;;7.10;99.90;;;;;;4878319;29;20290;-77
2023/04/13 00:10:45;;;;;;;1.40;1.10;;;7.10;99.90;;;;;;4878987;29;20618;-75
2023/04/13 00:13:14;;;;;;;1.00;1.00;;;7.10;99.90;;;;;;4878380;29;20226;-76
2023/04/13 00:15:43;;;;;;;1.70;1.00;;;7.10;99.90;;;;;;4877687;29;20221;-78
2023/04/13 00:18:11;;;;;;;2.10;1.20;;;7.10;99.90;;;;;;4877173;29;20324;-78
2023/04/13 00:20:42;;;;;;;2.93;1.10;;;7.10;99.90;;;;;;4878439;29;20596;-77
2023/04/13 00:23:10;;;;;;;1.40;1.10;;;7.00;99.90;;;;;;4877906;29;20578;-78
2023/04/13 00:25:39;;;;;;;1.60;1.03;;;7.10;99.90;;;;;;4890414;29;20219;-77
2023/04/13 00:28:09;;;;;;;1.17;0.90;;;7.10;99.90;;;;;;4897266;29;20229;-78
2023/04/13 00:30:37;;;;;;;1.63;0.97;;;7.10;99.90;;;;;;4897816;29;20198;-79
2023/04/13 00:33:05;;;;;;;0.70;0.70;;;7.10;99.90;;;;;;4897219;29;20213;-79
2023/04/13 00:35:34;;;;;;;0.80;0.80;;;7.10;99.90;;;;;;4880429;29;20302;-79
2023/04/13 00:38:03;;;;;;;1.60;1.10;;;7.10;99.90;;;;;;4878723;29;20206;-78
2023/04/13 00:40:31;;;;;;;2.13;1.10;;;7.10;99.90;;;;;;4878665;29;20226;-79
2023/04/13 00:43:00;;;;;;;1.57;1.10;;;7.10;99.90;;;;;;4878125;29;20222;-77
2023/04/13 00:45:30;;;;;;;0.90;0.90;;;7.10;99.90;;;;;;4878471;29;20222;-80
2023/04/13 00:47:58;;;;;;;1.27;0.90;;;7.00;99.90;;;;;;4878357;29;20238;-77
2023/04/13 00:50:27;;;;;;;1.00;1.00;;;7.00;99.90;;;;;;4878339;29;20230;-76
2023/04/13 00:52:56;;;;;;;0.93;0.90;;;7.00;99.90;;;;;;4878228;29;20233;-75
2023/04/13 00:55:26;;;;;;;2.73;1.10;;;7.00;99.90;;;;;;4880310;29;20286;-77
2023/04/13 00:57:54;;;;;;;1.23;0.83;;;7.00;99.90;;;;;;4897378;29;20320;-77
2023/04/13 01:00:24;;;;;;;0.93;0.70;;;7.00;99.90;;;;;;4893246;29;20226;-77
2023/04/13 01:02:54;;;;;;;0.60;0.60;;;7.00;99.90;;;;;;4877778;29;20240;-77
2023/04/13 01:05:24;;;;;;;0.57;0.57;;;7.00;99.90;;;;;;4878373;29;20226;-76
2023/04/13 01:08:01;;;;;;;0.80;0.80;;;6.90;99.90;;;;;;4878478;29;20261;-76
2023/04/13 01:10:39;;;;;;;0.80;0.70;;;6.80;99.90;;;;;;4888329;29;20589;-77
2023/04/13 01:13:19;;;;;;;0.73;0.70;;;6.80;99.90;;;;;;4905241;29;20210;-77
2023/04/13 01:15:54;;;;;;;1.93;0.80;;;6.80;99.90;;;;;;4896984;29;20277;-77
2023/04/13 01:18:26;;;;;;;0.77;0.60;;;6.80;99.90;;;;;;4883126;29;20669;-78
2023/04/13 01:20:55;;;;;;;0.70;0.70;;;6.80;99.90;;;;;;4878430;29;20240;-79
2023/04/13 01:23:33;;;;;;;1.60;0.60;;;6.80;99.90;;;;;;4877799;29;20221;-77
2023/04/13 01:26:05;;;;;;;2.93;0.70;;;6.70;99.90;;;;;;4878246;29;20217;-76
2023/04/13 01:28:37;;;;;;;0.50;0.50;;;6.70;99.90;;;;;;4878335;29;20238;-75
2023/04/13 01:31:10;;;;;;;0.50;0.50;;;6.60;99.90;;;;;;4878335;29;20214;-76
2023/04/13 01:33:40;;;;;;;0.70;0.40;;;6.40;99.90;;;;;;4878442;29;20218;-78
2023/04/13 01:36:10;;;;;;;2.17;0.60;;;6.10;99.90;;;;;;4881221;29;20257;-75
2023/04/13 01:38:38;;;;;;;0.60;0.40;;;6.00;99.90;;;;;;4882808;29;20214;-74
2023/04/13 01:41:07;;;;;;;0.30;0.30;;;5.90;99.90;;;;;;4881714;29;20216;-75
2023/04/13 01:43:37;;;;;;;0.63;0.47;;;5.80;99.90;;;;;;4881086;29;20282;-78
2023/04/13 01:46:10;;;;;;;1.63;0.40;;;5.70;99.90;;;;;;4881207;29;20309;-76
2023/04/13 01:48:45;;;;;;;0.80;0.30;;;5.70;99.90;;;;;;4881437;29;20370;-75
2023/04/13 01:51:16;;;;;;;0.30;0.30;;;5.70;99.90;;;;;;4880991;29;20249;-78
2023/04/13 01:53:47;;;;;;;0.50;0.40;;;5.60;99.90;;;;;;4881064;29;20199;-78
2023/04/13 01:56:18;;;;;;;0.40;0.40;;;5.70;99.90;;;;;;4881150;29;20214;-76
2023/04/13 01:58:52;;;;;;;0.53;0.43;;;5.70;99.90;;;;;;4881250;29;20267;-77
2023/04/13 02:01:20;;;;;;;0.60;0.40;;;5.60;99.90;;;;;;4880965;29;20283;-75
2023/04/13 02:03:48;;;;;;;0.50;0.40;;;5.70;99.90;;;;;;4880985;29;20210;-75
2023/04/13 02:06:16;;;;;;;0.30;0.23;;;5.70;99.90;;;;;;4881301;29;20270;-76
2023/04/13 02:08:45;;;;;;;0.87;0.33;;;5.60;99.90;;;;;;4881079;29;20260;-78
2023/04/13 02:11:13;;;;;;;2.00;0.50;;;5.60;99.90;;;;;;4881108;29;20218;-78
2023/04/13 02:13:41;;;;;;;0.30;0.30;;;5.60;99.90;;;;;;4880438;29;20309;-76
2023/04/13 02:16:11;;;;;;;0.30;0.30;;;5.60;99.90;;;;;;4881174;29;20301;-76
2023/04/13 02:18:40;;;;;;;0.30;0.30;;;5.60;99.90;;;;;;4883276;29;20210;-76
2023/04/13 02:21:10;;;;;;;0.30;0.30;;;5.70;99.90;;;;;;4888486;29;20696;-74
2023/04/13 02:23:39;;;;;;;0.80;0.50;;;5.60;99.90;;;;;;4892987;29;20229;-76
2023/04/13 02:26:08;;;;;;;1.43;0.50;;;5.60;99.90;;;;;;4894294;29;20221;-75
2023/04/13 02:28:36;;;;;;;0.50;0.50;;;5.60;99.90;;;;;;4888301;29;20268;-73
2023/04/13 02:31:05;;;;;;;0.73;0.43;;;5.60;99.90;;;;;;4884075;29;20221;-74
2023/04/13 02:33:36;;;;;;;0.50;0.50;;;5.60;99.90;;;;;;4885664;29;20213;-75
2023/04/13 02:36:05;;;;;;;1.20;0.60;;;5.70;99.90;;;;;;4883387;29;20198;-76
2023/04/13 02:38:36;;;;;;;0.50;0.50;;;5.70;99.90;;;;;;4881955;29;20242;-77
2023/04/13 02:41:05;;;;;;;0.70;0.70;;;5.70;99.90;;;;;;4882955;29;20238;-75
2023/04/13 02:43:34;;;;;;;2.73;0.80;;;5.70;99.90;;;;;;4886833;29;20218;-77
2023/04/13 02:46:03;;;;;;;0.60;0.60;;;5.70;99.90;;;;;;4883613;29;20244;-76
2023/04/13 02:48:31;;;;;;;0.93;0.80;;;5.80;99.90;;;;;;4880483;29;20262;-77
2023/04/13 02:51:01;;;;;;;2.17;0.90;;;5.80;99.90;;;;;;4880169;29;20240;-78
2023/04/13 02:53:29;;;;;;;0.87;0.80;;;5.80;99.90;;;;;;4888833;29;20226;-78
2023/04/13 02:55:57;;;;;;;1.63;0.90;;;5.80;99.90;;;;;;4899030;29;20213;-77
2023/04/13 02:58:25;;;;;;;0.70;0.70;;;5.90;99.90;;;;;;4899073;29;20220;-76
2023/04/13 03:00:53;;;;;;;0.60;0.53;;;5.90;99.90;;;;;;4892157;29;20314;-76
2023/04/13 03:03:21;;;;;;;0.60;0.60;;;5.90;99.90;;;;;;4879695;29;20681;-77
2023/04/13 03:05:50;;;;;;;0.80;0.50;;;5.90;99.90;;;;;;4880000;29;20585;-77
2023/04/13 03:08:20;;;;;;;1.10;0.50;;;5.90;99.90;;;;;;4879778;29;20218;-78
2023/04/13 03:10:48;;;;;;;1.17;0.53;;;5.90;99.90;;;;;;4880130;29;20214;-77
2023/04/13 03:13:16;;;;;;;0.70;0.50;;;5.90;99.90;;;;;;4879698;29;20210;-76
2023/04/13 03:15:45;;;;;;;0.73;0.60;;;5.80;99.90;;;;;;4879831;29;20214;-78
2023/04/13 03:18:15;;;;;;;1.03;0.70;;;5.80;99.90;;;;;;4879824;29;20266;-75
2023/04/13 03:20:43;;;;;;;0.93;0.60;;;5.80;99.90;;;;;;4879717;29;20230;-78
2023/04/13 03:23:11;;;;;;;0.90;0.43;;;5.80;99.90;;;;;;4879297;29;20332;-76
2023/04/13 03:25:40;;;;;;;1.53;0.57;;;5.80;99.90;;;;;;4879575;29;20216;-76
2023/04/13 03:28:08;;;;;;;0.50;0.50;;;5.80;99.90;;;;;;4879796;29;20312;-78
2023/04/13 03:30:37;;;;;;;0.97;0.50;;;5.80;99.90;;;;;;4879723;29;20620;-77
2023/04/13 03:33:05;;;;;;;0.70;0.60;;;5.70;99.90;;;;;;4879268;29;20222;-75
2023/04/13 03:35:33;;;;;;;1.40;0.57;;;5.70;99.90;;;;;;4879692;29;20583;-79
2023/04/13 03:38:01;;;;;;;0.60;0.50;;;5.70;99.90;;;;;;4879341;29;20214;-77
2023/04/13 03:40:29;;;;;;;0.50;0.50;;;5.70;99.90;;;;;;4879410;29;20206;-77
2023/04/13 03:42:59;;;;;;;2.10;0.53;;;5.70;99.90;;;;;;4878992;29;20676;-78
2023/04/13 03:45:28;;;;;;;2.90;0.77;;;5.60;99.90;;;;;;4879521;29;20210;-79
2023/04/13 03:47:56;;;;;;;1.47;0.60;;;5.70;99.90;;;;;;4879221;29;20210;-73
2023/04/13 03:50:24;;;;;;;0.50;0.50;;;5.60;99.90;;;;;;4878990;29;20261;-76
2023/04/13 03:52:52;;;;;;;0.57;0.40;;;5.60;99.90;;;;;;4893750;29;20297;-75
2023/04/13 03:55:20;;;;;;;0.97;0.50;;;5.50;99.90;;;;;;4897953;29;20201;-76
2023/04/13 03:57:49;;;;;;;1.27;0.63;;;5.50;99.90;;;;;;4889949;29;20214;-74
2023/04/13 04:00:19;;;;;;;0.80;0.40;;;5.50;99.90;;;;;;4878859;29;20674;-78
2023/04/13 04:02:47;;;;;;;0.60;0.50;;;5.50;99.90;;;;;;4879038;29;20214;-77
2023/04/13 04:05:16;;;;;;;0.60;0.50;;;5.50;99.90;;;;;;4879243;29;20214;-75
2023/04/13 04:07:44;;;;;;;0.50;0.50;;;5.40;99.90;;;;;;4878988;29;20210;-79
2023/04/13 04:10:12;;;;;;;3.30;0.57;;;5.40;99.90;;;;;;4891627;29;20245;-78
2023/04/13 04:12:40;;;;;;;0.60;0.60;;;5.40;99.90;;;;;;4897483;29;20367;-76
2023/04/13 04:15:09;;;;;;;0.60;0.50;;;5.40;99.90;;;;;;4897659;29;20224;-76
2023/04/13 04:17:39;;;;;;;1.90;0.80;;;5.40;99.90;;;;;;4891157;29;20301;-76
2023/04/13 04:20:09;;;;;;;1.43;0.83;;;5.40;99.90;;;;;;4889474;29;20198;-78
2023/04/13 04:22:37;;;;;;;2.47;0.60;;;5.40;99.90;;;;;;4894793;29;20256;-75
2023/04/13 04:25:06;;;;;;;1.93;0.60;;;5.40;99.90;;;;;;4894672;29;20224;-75
2023/04/13 04:27:36;;;;;;;1.57;0.47;;;5.40;99.90;;;;;;4881580;29;20246;-77
2023/04/13 04:30:06;;;;;;;1.80;0.60;;;5.40;99.90;;;;;;4878658;29;20240;-77
2023/04/13 04:32:35;;;;;;;0.70;0.50;;;5.40;99.90;;;;;;4878488;29;20218;-78
2023/04/13 04:35:06;;;;;;;0.73;0.50;;;5.40;99.90;;;;;;4878504;29;20270;-75
2023/04/13 04:37:36;;;;;;;1.40;1.00;;;5.40;99.90;;;;;;4891256;29;20297;-78
2023/04/13 04:40:08;;;;;;;1.17;1.07;;;5.50;99.90;;;;;;4897319;29;20659;-78
2023/04/13 04:42:37;;;;;;;1.40;0.80;;;5.40;99.90;;;;;;4897395;29;20293;-79
2023/04/13 04:45:06;;;;;;;1.53;0.90;;;5.50;99.90;;;;;;4892402;29;20661;-77
2023/04/13 04:47:40;;;;;;;2.17;0.80;;;5.50;99.90;;;;;;4878818;29;20219;-77
2023/04/13 04:50:11;;;;;;;1.47;0.73;;;5.50;99.90;;;;;;4882755;29;20288;-77
2023/04/13 04:52:40;;;;;;;3.23;1.10;;;5.50;99.90;;;;;;4897002;29;20285;-78
2023/04/13 04:55:09;;;;;;;1.13;0.97;;;5.50;99.90;;;;;;4890378;29;20214;-76
2023/04/13 04:57:37;;;;;;;1.27;0.80;;;5.50;99.90;;;;;;4878537;29;20577;-78
2023/04/13 05:00:09;;;;;;;0.77;0.70;;;5.50;99.90;;;;;;4877968;29;20691;-77
2023/04/13 05:02:37;;;;;;;0.83;0.70;;;5.50;99.90;;;;;;4877966;29;20313;-78
2023/04/13 05:05:07;;;;;;;1.10;0.67;;;5.50;99.90;;;;;;4878478;29;20669;-77
2023/04/13 05:07:38;;;;;;;1.67;0.73;;;5.50;99.90;;;;;;4878562;29;20745;-78
2023/04/13 05:10:08;;;;;;;2.47;0.90;;;5.50;99.90;;;;;;4888647;29;20225;-76
2023/04/13 05:12:36;;;;;;;1.17;0.70;;;5.50;99.90;;;;;;4893891;29;20660;-74
2023/04/13 05:15:06;;;;;;;1.10;0.90;;;5.60;99.90;;;;;;4894603;29;20277;-79
2023/04/13 05:17:36;;;;;;;1.30;0.90;;;5.60;99.90;;;;;;4888333;29;20241;-78
2023/04/13 05:20:06;;;;;;;1.07;0.80;;;5.60;99.90;;;;;;4890024;29;20664;-77
2023/04/13 05:22:34;;;;;;;1.23;0.80;;;5.60;99.90;;;;;;4891603;29;20213;-75
2023/04/13 05:25:05;;;;;;;0.93;0.70;;;5.60;99.90;;;;;;4898819;29;20211;-73
2023/04/13 05:27:33;;;;;;;1.90;0.80;;;5.60;99.90;;;;;;4903669;29;20244;-75
2023/04/13 05:30:02;;;;;;;0.60;0.60;;;5.60;99.90;;;;;;4895084;29;20229;-74
2023/04/13 05:32:33;;;;;;;0.80;0.70;;;5.60;99.90;;;;;;4915690;29;20237;-74
2023/04/13 05:35:03;;;;;;;1.20;0.77;;;5.60;99.90;;;;;;4893106;29;20217;-78
2023/04/13 05:37:31;;;;;;;1.00;0.80;;;5.60;99.90;;;;;;4890061;29;20230;-77
2023/04/13 05:39:59;;;;;;;1.80;0.83;;;5.60;99.90;;;;;;4891615;29;20213;-78
2023/04/13 05:42:28;;;;;;;0.83;0.83;;;5.70;99.90;;;;;;4893737;29;20206;-78
2023/04/13 05:44:57;;;;;;;1.63;0.83;;;5.70;99.90;;;;;;4891014;29;20653;-76
2023/04/13 05:47:26;;;;;;;2.00;0.90;;;5.70;99.90;;;;;;4892775;29;20206;-74
2023/04/13 05:49:54;;;;;;;1.77;0.70;;;5.80;99.90;;;;;;4890603;29;20332;-76
2023/04/13 05:52:22;;;;;;;3.63;1.00;;;5.80;99.90;;;;;;4885162;29;20217;-77
2023/04/13 05:54:51;;;;;;;1.80;0.87;;;5.80;99.90;;;;;;4901234;29;20218;-75
2023/04/13 05:57:20;;;;;;;2.13;0.80;;;5.90;99.90;;;;;;4893823;29;20213;-77
2023/04/13 05:59:50;;;;;;;2.57;1.00;;;5.90;99.90;;;;;;4881261;29;20210;-77
2023/04/13 06:02:19;;;;;;;0.70;0.70;;;6.00;99.90;;;;;;4880719;29;20321;-79
2023/04/13 06:04:47;;;;;;;1.77;0.93;;;6.00;99.90;;;;;;4882785;29;20218;-76
2023/04/13 06:07:16;;;;;;;1.50;1.10;;;6.00;99.90;;;;;;4896563;29;20305;-79
2023/04/13 06:09:44;;;;;;;2.17;0.97;;;6.10;99.90;;;;;;4891663;29;20248;-76
2023/04/13 06:12:14;;;;;;;1.67;1.00;;;6.10;99.90;;;;;;4890713;29;20210;-77
2023/04/13 06:14:43;;;;;;;1.00;0.90;;;6.10;99.90;;;;;;4886282;29;20210;-76
2023/04/13 06:17:12;;;;;;;1.60;1.07;;;6.20;99.90;;;;;;4880809;29;20248;-78
2023/04/13 06:19:40;;;;;;;1.33;1.10;;;6.20;99.90;;;;;;4881344;29;20242;-75
2023/04/13 06:22:09;;;;;;;2.50;0.93;;;6.20;99.90;;;;;;4880525;29;20210;-73
2023/04/13 06:24:37;;;;;;;0.80;0.80;;;6.30;99.90;;;;;;4881717;29;20305;-77
2023/04/13 06:27:05;;;;;;;1.87;0.77;;;6.20;99.90;;;;;;4887888;29;20312;-76
2023/04/13 06:29:33;;;;;;;0.80;0.80;;;6.20;99.90;;;;;;4896184;29;20213;-76
2023/04/13 06:32:03;;;;;;;2.40;1.00;;;6.20;99.90;;;;;;4879971;29;20324;-77
2023/04/13 06:34:33;;;;;;;1.43;0.90;;;6.20;99.90;;;;;;4880810;29;20286;-76
2023/04/13 06:37:01;;;;;;;1.83;0.90;;;6.20;99.90;;;;;;4880810;29;20217;-77
2023/04/13 06:39:30;;;;;;;1.80;0.87;;;6.20;99.90;;;;;;4880459;29;20214;-77
2023/04/13 06:42:00;;;;;;;0.80;0.60;;;6.20;99.90;;;;;;4880765;29;20244;-78
2023/04/13 06:44:28;;;;;;;1.37;1.13;;;6.20;99.90;;;;;;4881114;29;20305;-78
2023/04/13 06:46:56;;;;;;;2.67;1.30;;;6.20;99.90;;;;;;4887323;29;20221;-76
2023/04/13 06:49:25;;;;;;;1.57;1.00;;;6.20;99.90;;;;;;4882576;29;20241;-76
2023/04/13 06:54:46;;;;;;;0.60;0.60;;;6.30;99.90;;;;;;4883060;29;20222;-77
2023/04/13 06:57:38;;;;;;;0.90;0.57;;;6.40;99.90;;;;;;4890318;29;20225;-75
2023/04/13 07:00:09;;;;;;;3.40;0.80;;;6.60;99.90;;;;;;4894731;29;20210;-75
2023/04/13 07:02:56;;;;;;;2.10;0.97;;;6.70;99.90;;;;;;4897466;29;20232;-75
2023/04/13 07:05:25;;;;;;;3.17;0.90;;;6.70;99.90;;;;;;4899187;29;20261;-77
2023/04/13 07:07:54;;;;;;;1.40;0.70;;;6.80;99.90;;;;;;4899826;29;20620;-73
2023/04/13 07:10:23;;;;;;;1.73;0.97;;;7.00;99.90;;;;;;4901005;29;20212;-74
2023/04/13 07:12:51;;;;;;;2.10;1.00;;;7.30;99.90;;;;;;4903222;29;20249;-73
2023/04/13 07:15:19;;;;;;;1.53;0.90;;;7.50;99.90;;;;;;4903265;29;20206;-74
2023/04/13 07:17:48;;;;;;;3.00;0.90;;;7.80;99.90;;;;;;4903261;29;20264;-73
2023/04/13 07:20:16;;;;;;;1.80;0.87;;;8.00;99.90;;;;;;4908618;29;20225;-74
2023/04/13 07:22:44;;;;;;;1.60;0.90;;;8.20;99.90;;;;;;4906907;29;20645;-73
2023/04/13 07:25:14;;;;;;;2.83;1.43;;;8.10;99.90;;;;;;4902851;29;20237;-77
2023/04/13 07:27:42;;;;;;;1.33;0.97;;;8.40;99.90;;;;;;4897637;29;20210;-76
2023/04/13 07:30:10;;;;;;;1.97;1.00;;;8.70;99.90;;;;;;4895581;29;20649;-75
2023/04/13 07:32:39;;;;;;;2.40;0.80;;;9.40;99.90;;;;;;4900267;29;20250;-76
2023/04/13 07:35:08;;;;;;;3.40;1.00;;;10.00;99.90;;;;;;4895389;29;20210;-77
2023/04/13 07:37:36;;;;;;;3.47;1.07;;;10.50;99.90;;;;;;4898005;29;20213;-78
2023/04/13 07:40:05;;;;;;;2.27;0.97;;;10.80;99.90;;;;;;4897928;29;20714;-76
2023/04/13 07:42:35;;;;;;;3.37;1.03;;;11.00;99.90;;;;;;4897655;29;20228;-76
2023/04/13 07:45:04;;;;;;;2.40;1.20;;;11.90;99.90;;;;;;4879702;29;20226;-75
2023/04/13 07:47:33;;;;;;;3.53;1.10;;;12.80;99.90;;;;;;4895978;29;20661;-75
2023/04/13 07:50:01;;;;;;;2.53;1.10;;;13.50;99.90;;;;;;4897556;29;20755;-76
2023/04/13 07:52:29;;;;;;;3.10;0.90;;;13.40;99.90;;;;;;4889890;29;20305;-76
2023/04/13 07:54:57;;;;;;;2.67;1.00;;;14.00;99.90;;;;;;4879019;29;20218;-76
2023/04/13 07:57:26;;;;;;;4.13;1.00;;;14.00;99.90;;;;;;4879093;29;20214;-74
2023/04/13 07:59:55;;;;;;;3.13;0.93;;;14.50;99.90;;;;;;4900244;29;20213;-76
2023/04/13 08:02:24;;;;;;;2.77;1.00;;;14.80;99.90;;;;;;4896077;29;20225;-77
2023/04/13 08:04:52;;;;;;;3.40;1.20;;;15.50;99.90;;;;;;4896763;29;20452;-76
2023/04/13 08:07:21;;;;;;;3.53;1.07;;;15.20;99.90;;;;;;4897070;29;20217;-75
2023/04/13 08:09:51;;;;;;;3.33;1.20;;;15.60;97.60;;;;;;4902384;29;20704;-73
2023/04/13 08:12:19;;;;;;;2.23;1.10;;;15.60;98.00;;;;;;4898463;29;20257;-74
2023/04/13 08:14:47;;;;;;;1.90;1.10;;;16.00;97.10;;;;;;4896812;29;20273;-76
2023/04/13 08:17:17;;;;;;;2.60;1.00;;;16.20;95.90;;;;;;4897037;29;20740;-77
2023/04/13 08:19:45;;;;;;;2.70;1.20;;;15.70;95.80;;;;;;4894401;29;20301;-76
2023/04/13 08:22:14;;;;;;;2.00;0.90;;;16.00;94.70;;;;;;4897188;29;20201;-77
2023/04/13 08:24:42;;;;;;;1.53;0.90;;;15.80;93.70;;;;;;4895882;29;20257;-77
2023/04/13 08:27:11;;;;;;;3.10;1.27;;;16.20;94.00;;;;;;4892590;29;20213;-75
2023/04/13 08:29:39;;;;;;;2.47;1.10;;;16.10;92.90;;;;;;4894438;29;20664;-77
2023/04/13 08:32:07;;;;;;;3.47;1.20;;;14.90;94.50;;;;;;4895758;29;20328;-78
2023/04/13 08:34:37;;;;;;;3.87;1.07;;;15.60;94.90;;;;;;4896544;29;20222;-76
2023/04/13 08:37:05;;;;;;;4.28;1.20;;;16.10;93.40;;;;;;4893562;29;20498;-77
2023/04/13 08:39:33;;;;;;;2.73;1.10;;;16.50;95.10;;;;;;4891745;29;20293;-76
2023/04/13 08:42:03;;;;;;;2.17;1.10;;;16.70;90.80;;;;;;4905329;29;20205;-76
2023/04/13 08:44:32;;;;;;;3.47;1.27;;;17.20;91.30;;;;;;4899052;29;20240;-75
2023/04/13 08:47:01;;;;;;;2.83;1.00;;;15.90;89.30;;;;;;4898872;29;20249;-75
2023/04/13 08:49:32;;;;;;;6.00;1.40;;;15.90;90.90;;;;;;4901254;29;20623;-78
2023/04/13 08:52:07;;;;;;;1.70;0.90;;;15.30;91.00;;;;;;4899943;29;20245;-75
2023/04/13 08:54:35;;;;;;;3.20;1.20;;;15.30;90.60;;;;;;4890268;29;20202;-75
2023/04/13 08:57:04;;;;;;;2.93;1.10;;;15.40;90.00;;;;;;4897450;29;20301;-74
2023/04/13 08:59:33;;;;;;;4.13;1.10;;;15.90;90.40;;;;;;4899225;29;20244;-73
2023/04/13 09:02:05;;;;;;;2.83;1.17;;;17.20;90.20;;;;;;4899255;29;20237;-75
2023/04/13 09:04:37;;;;;;;2.90;1.40;;;17.80;81.50;;;;;;4898559;29;20216;-75
2023/04/13 09:07:11;;;;;;;4.60;1.23;;;17.90;81.90;;;;;;4900579;29;20213;-77
2023/04/13 09:09:42;;;;;;;2.20;1.00;;;18.10;79.20;;;;;;4898441;29;20285;-76
2023/04/13 09:12:10;;;;;;;2.63;1.20;;;18.60;80.60;;;;;;4898783;29;20232;-75
2023/04/13 09:14:38;;;;;;;3.63;1.47;;;18.10;76.40;;;;;;4899467;29;20212;-78
2023/04/13 09:17:08;;;;;;;4.18;1.30;;;17.60;78.20;;;;;;4899477;29;20816;-74
2023/04/13 09:19:40;;;;;;;3.00;1.20;;;16.70;75.90;;;;;;4899587;29;20728;-77
2023/04/13 09:22:14;;;;;;;1.93;1.00;;;15.80;74.10;;;;;;4899442;29;20214;-77
2023/04/13 09:24:42;;;;;;;3.23;1.30;;;15.80;77.50;;;;;;4895783;29;20207;-75
2023/04/13 09:27:18;;;;;;;2.97;1.20;;;14.90;76.60;;;;;;4900004;29;20224;-77
2023/04/13 09:29:51;;;;;;;2.70;1.10;;;14.30;84.00;;;;;;4899882;29;20201;-76
2023/04/13 09:32:21;;;;;;;3.00;1.17;;;14.30;87.70;;;;;;4895236;29;20261;-77
2023/04/13 09:35:03;;;;;;;2.37;1.03;;;13.90;81.30;;;;;;4900209;29;20206;-77
2023/04/13 09:37:38;;;;;;;2.93;1.27;;;13.50;81.00;;;;;;4898501;29;20205;-77
2023/04/13 09:40:15;;;;;;;2.80;1.10;;;13.60;85.20;;;;;;4900094;29;20656;-76
2023/04/13 09:42:55;;;;;;;3.07;1.20;;;13.50;82.20;;;;;;4898269;29;20572;-75
2023/04/13 09:45:23;;;;;;;2.33;1.13;;;13.30;87.50;;;;;;4897876;29;20210;-76
2023/04/13 09:47:54;;;;;;;1.40;1.00;;;13.50;88.40;;;;;;4899960;29;20281;-75
2023/04/13 09:50:26;;;;;;;3.77;1.03;;;13.70;85.30;;;;;;4900224;29;20198;-75
2023/04/13 09:53:04;;;;;;;2.93;0.93;;;13.90;84.00;;;;;;4899793;29;20214;-75
2023/04/13 09:55:33;;;;;;;1.83;0.90;;;13.50;80.00;;;;;;4896305;29;20209;-76
2023/04/13 09:58:12;;;;;;;2.90;1.20;;;13.30;83.50;;;;;;4899939;29;20216;-77
2023/04/13 10:00:42;;;;;;;3.10;1.07;;;13.20;81.00;;;;;;4895763;29;20649;-73
2023/04/13 10:03:11;;;;;;;2.37;0.77;;;13.10;83.60;;;;;;4899338;29;21356;-74
2023/04/13 10:05:41;;;;;;;3.60;1.00;;;13.20;80.50;;;;;;4898312;29;20296;-76
2023/04/13 10:08:27;;;;;;;4.83;1.23;;;13.70;86.90;;;;;;4899163;29;20725;-74
2023/04/13 10:11:00;;;;;;;2.10;0.90;;;13.90;82.20;;;;;;4891759;29;20205;-74
2023/04/13 10:13:34;;;;;;;3.57;1.10;;;14.50;80.20;;;;;;4900006;29;20225;-74
2023/04/13 10:16:16;;;;;;;1.97;0.83;;;14.80;80.50;;;;;;4899036;29;20257;-76
2023/04/13 10:18:56;;;;;;;2.10;1.10;;;14.40;76.10;;;;;;4900135;29;20233;-75
2023/04/13 10:21:27;;;;;;;3.37;0.90;;;14.50;79.10;;;;;;4890876;29;20215;-72
2023/04/13 10:23:57;;;;;;;2.30;0.93;;;14.50;78.30;;;;;;4882030;29;20191;-73
2023/04/13 10:26:36;;;;;;;2.43;1.03;;;14.80;78.20;;;;;;4881768;29;20289;-74
2023/04/13 10:29:07;;;;;;;3.03;1.20;;;14.90;77.40;;;;;;4888453;29;20627;-75
2023/04/13 10:31:36;;;;;;;2.77;1.20;;;14.80;77.40;;;;;;4918927;29;20240;-74
2023/04/13 10:34:05;;;;;;;3.13;1.10;;;14.70;79.80;;;;;;4919811;29;20237;-74
2023/04/13 10:36:38;;;;;;;2.70;1.07;;;14.80;78.20;;;;;;4897714;29;20265;-75
2023/04/13 10:39:08;;;;;;;2.27;1.00;;;14.80;78.00;;;;;;4881348;29;20210;-75
2023/04/13 10:41:37;;;;;;;4.47;1.20;;;14.20;78.20;;;;;;4884717;29;20216;-74
2023/04/13 10:44:06;;;;;;;3.40;1.17;;;14.30;80.60;;;;;;4899793;29;20214;-77
2023/04/13 10:46:35;;;;;;;2.70;1.33;;;14.60;77.20;;;;;;4886025;29;20216;-74
2023/04/13 10:49:05;;;;;;;2.50;1.03;;;14.80;79.20;;;;;;4880465;29;20677;-76
2023/04/13 10:51:40;;;;;;;2.50;1.20;;;15.00;74.30;;;;;;4880559;29;20295;-74
2023/04/13 10:54:12;;;;;;;3.40;1.27;;;14.90;76.30;;;;;;4884187;29;20704;-75
2023/04/13 10:56:41;;;;;;;2.93;1.37;;;14.70;79.10;;;;;;4880472;29;20218;-77
2023/04/13 10:59:09;;;;;;;2.27;1.10;;;14.00;78.90;;;;;;4882121;29;20222;-76
2023/04/13 11:01:39;;;;;;;3.97;1.00;;;13.50;78.80;;;;;;4883789;29;20222;-77
2023/04/13 11:04:09;;;;;;;1.87;1.03;;;13.30;79.10;;;;;;4879814;29;20678;-73
2023/04/13 11:06:44;;;;;;;2.90;1.17;;;13.20;81.60;;;;;;4880351;29;20194;-76
2023/04/13 11:09:14;;;;;;;2.47;1.20;;;13.10;84.00;;;;;;4880249;29;20218;-76
2023/04/13 11:11:50;;;;;;;4.70;1.70;;;13.20;87.50;;;;;;4880000;29;20225;-74
2023/04/13 11:14:21;;;;;;;2.67;1.40;;;13.50;84.80;;;;;;4880251;29;20253;-75
2023/04/13 11:16:49;;;;;;;3.33;1.10;;;13.10;80.90;;;;;;4880325;29;20276;-75
2023/04/13 11:19:18;;;;;;;4.40;1.37;;;12.90;85.10;;;;;;4890805;29;20221;-73
2023/04/13 11:21:54;;;;;;;2.30;1.10;;;13.20;83.50;;;;;;4906231;29;20209;-73
2023/04/13 11:24:28;;;;;;;2.80;1.10;;;13.10;82.10;;;;;;4909207;29;20209;-72
2023/04/13 11:26:56;;;;;;;3.03;0.83;;;13.20;82.30;;;;;;4903500;29;20229;-73
2023/04/13 11:29:26;;;;;;;3.00;1.10;;;13.10;83.60;;;;;;4897622;29;20218;-75
2023/04/13 11:31:55;;;;;;;3.17;1.10;;;12.50;83.40;;;;;;4882782;29;20210;-75
2023/04/13 11:34:27;;;;;;;4.60;1.30;;;12.70;88.70;;;;;;4916069;29;20587;-76
2023/04/13 11:37:00;;;;;;;2.97;1.27;;;12.90;88.90;;;;;;4916744;29;20260;-75
2023/04/13 11:39:31;;;;;;;2.70;1.03;;;12.70;89.10;;;;;;4890157;29;20277;-76
2023/04/13 11:42:05;;;;;;;3.60;1.47;;;12.80;83.40;;;;;;4896262;29;20747;-73
2023/04/13 11:44:35;;;;;;;3.57;1.20;;;12.50;90.00;;;;;;4917018;29;20200;-76
2023/04/13 11:47:04;;;;;;;2.90;1.27;;;12.50;83.60;;;;;;4924646;29;20236;-73
2023/04/13 11:49:33;;;;;;;2.30;1.03;;;12.00;87.90;;;;;;4903129;29;20245;-74
2023/04/13 11:52:02;;;;;;;5.13;1.23;;;11.70;89.00;;;;;;4898148;29;20300;-72
2023/04/13 11:54:33;;;;;;;4.73;1.63;;;11.70;90.60;;;;;;4898190;29;20304;-72
2023/04/13 11:57:01;;;;;;;4.30;1.27;;;11.40;91.40;;;;;;4888292;29;20633;-74
2023/04/13 11:59:29;;;;;;;4.87;1.70;;;11.30;91.40;;;;;;4882816;29;20210;-72
2023/04/13 12:01:57;;;;;;;3.67;1.00;;;11.20;90.20;;;;;;4896990;29;20227;-74
2023/04/13 12:04:37;;;;;;;3.60;1.10;;;11.10;90.80;;;;;;4895795;29;20208;-74
2023/04/13 12:07:11;;;;;;;2.57;1.07;;;10.90;90.20;;;;;;4906323;29;20874;-74
2023/04/13 12:09:44;;;;;;;2.03;1.10;;;10.90;90.20;;;;;;4914985;29;20559;-77
2023/04/13 12:12:16;;;;;;;1.73;0.90;;;11.00;91.30;;;;;;4897563;29;20718;-75
2023/04/13 12:15:06;;;;;;;3.33;1.10;;;11.00;89.40;;;;;;4906245;29;20323;-75
2023/04/13 12:17:37;;;;;;;3.17;1.00;;;11.10;91.90;;;;;;4916161;29;20380;-74
2023/04/13 12:20:16;;;;;;;1.57;1.30;;;11.30;90.90;;;;;;4878183;29;20201;-74
2023/04/13 12:22:44;;;;;;;3.50;1.50;;;11.60;89.30;;;;;;4878147;29;20218;-77
2023/04/13 12:25:31;;;;;;;3.10;1.40;;;11.60;90.10;;;;;;4880745;29;20201;-77
2023/04/13 12:28:03;;;;;;;4.33;1.33;;;11.40;90.30;;;;;;4886380;29;20740;-74
2023/04/13 12:30:33;;;;;;;3.20;1.40;;;11.40;88.10;;;;;;4883817;29;20214;-75
2023/04/13 12:33:02;;;;;;;4.53;1.23;;;11.40;89.70;;;;;;4878131;29;20572;-74
2023/04/13 12:35:31;;;;;;;3.03;0.90;;;11.50;90.90;;;;;;4879826;29;20233;-74
2023/04/13 12:37:59;;;;;;;3.13;1.30;;;11.40;92.00;;;;;;4894848;29;20273;-76
2023/04/13 12:40:27;;;;;;;2.97;1.50;;;11.40;90.90;;;;;;4895376;29;20241;-77
2023/04/13 12:42:57;;;;;;;2.83;1.20;;;11.30;91.60;;;;;;4887646;29;20427;-77
2023/04/13 12:45:25;;;;;;;3.07;1.23;;;11.10;91.70;;;;;;4915607;29;20212;-75
2023/04/13 12:47:54;;;;;;;3.33;1.37;;;11.00;93.00;;;;;;4896768;29;20224;-75
2023/04/13 12:50:22;;;;;;;3.17;1.20;;;11.00;91.70;;;;;;4897453;29;20214;-76
2023/04/13 12:52:50;;;;;;;3.73;1.53;;;10.80;93.30;;;;;;4896547;29;20276;-76
2023/04/13 12:55:18;;;;;;;3.20;1.50;;;10.70;94.70;;;;;;4897416;29;20234;-74
2023/04/13 12:57:46;;;;;;;3.23;1.50;;;10.50;94.00;;;;;;4881568;29;20210;-76
2023/04/13 13:00:17;;;;;;;3.63;1.60;;;10.70;96.10;;;;;;4888953;29;20292;-75
2023/04/13 13:02:45;;;;;;;3.70;1.50;;;10.80;95.20;;;;;;4889486;29;20362;-77
2023/04/13 13:05:15;;;;;;;2.90;1.17;;;10.70;94.70;;;;;;4887287;29;20255;-76
2023/04/13 13:07:43;;;;;;;2.03;1.10;;;10.70;94.60;;;;;;4896698;29;20213;-74
2023/04/13 13:10:11;;;;;;;3.63;1.27;;;10.60;95.20;;;;;;4896851;29;20217;-76